Dades meteomassalio
Diari Summary for Diciembre 19, 2017 Units:  Metric    English   Both
« Previous Day
Next Day »
Diari Semanal Mensual Anual Personalitzat
  Maxima: Minima: Mijana:
Temperatura: -17.8 °C -19.6 °C -15.3 °C
Rosada: -17.8 °C -21.5 °C -18.4 °C
Humitat: Humidity % 47 % 68 %
Velocitat del vent: 0 km/h 0 km/h 16.1 km/h
Racha vent: 0 km/h - -
Vent:- - WNW
Pressio: 0 hPa 34760.7 hPa -
Pluja: 0 mm    
Historical Graphs
 
 
Tabular Data for Diciembre 19, 2017
Time Temperature Dew Point Pressure Wind Wind Speed Wind Gust Humidity Rainfall Rate (Hourly) solar Conditions
-17.8 °C -17.8 °C 0 hPa Calm     Humidity % 0 mm SolarRadiationWatts/m^2 W/m2 Conditions
00:04 -11.9 °C -13.7 °C 34760.7 hPa Calm     81 % 0 mm 0.0 W/m2 CLR
00:07 -12.2 °C -13.9 °C 34760.7 hPa Calm     81 % 0 mm 0.0 W/m2 CLR
00:10 -12.2 °C -13.9 °C 34760.7 hPa North 20.8 km/h 20.8 km/h 81 % 0 mm 0.0 W/m2 CLR
00:15 -12.6 °C -14.3 °C 34760.7 hPa NW 18.2 km/h 18.2 km/h 81 % 0 mm 0.0 W/m2 CLR
00:16 -12.6 °C -14.3 °C 34760.7 hPa NNW 17.9 km/h 17.9 km/h 81 % 0 mm 0.0 W/m2 CLR
00:18 -12.6 °C -14.3 °C 34760.7 hPa NW 15 km/h 15 km/h 81 % 0 mm 0.0 W/m2 CLR
00:22 -12.6 °C -14.2 °C 34760.7 hPa NW 11.9 km/h 11.9 km/h 82 % 0 mm 0.0 W/m2 CLR
00:27 -12.8 °C -14.4 °C 34760.7 hPa NW 9 km/h   82 % 0 mm 0.0 W/m2 CLR
00:32 -12.8 °C -14.6 °C 34760.7 hPa NW 15 km/h 15 km/h 81 % 0 mm 0.0 W/m2 CLR
00:34 -12.8 °C -14.4 °C 34760.7 hPa NW 11.9 km/h 11.9 km/h 82 % 0 mm 0.0 W/m2 CLR
00:36 -12.8 °C -14.4 °C 34774.2 hPa Calm     82 % 0 mm 0.0 W/m2 CLR
00:41 -13.2 °C -14.8 °C 34760.7 hPa Calm     81 % 0 mm 0.0 W/m2 CLR
00:43 -13.2 °C -14.8 °C 34774.2 hPa NNW 17.9 km/h 17.9 km/h 81 % 0 mm 0.0 W/m2 CLR
00:48 -13.4 °C -15.2 °C 34774.2 hPa NNW 17.9 km/h 17.9 km/h 81 % 0 mm 0.0 W/m2 CLR
00:53 -13.4 °C -15.2 °C 34774.2 hPa North 20.8 km/h 20.8 km/h 81 % 0 mm 0.0 W/m2 CLR
00:54 -13.4 °C -15.2 °C 34774.2 hPa NNW 11.9 km/h 11.9 km/h 81 % 0 mm 0.0 W/m2 CLR
00:59 -13.4 °C -15.2 °C 34774.2 hPa Calm     81 % 0 mm 0.0 W/m2 CLR
01:02 -13.4 °C -15.2 °C 34774.2 hPa North 17.9 km/h 17.9 km/h 80 % 0 mm 0.0 W/m2 CLR
01:04 -13.8 °C -15.6 °C 34774.2 hPa NNW 9 km/h   80 % 0 mm 0.0 W/m2 CLR
01:08 -14.1 °C -15.9 °C 34774.2 hPa NNE 15.6 km/h 15.6 km/h 80 % 0 mm 0.0 W/m2 CLR
01:10 -14.1 °C -15.9 °C 34774.2 hPa North 20.9 km/h 20.9 km/h 80 % 0 mm 0.0 W/m2 CLR
01:15 -14.4 °C -16.2 °C 34774.2 hPa NNE 23.8 km/h 23.8 km/h 80 % 0 mm 0.0 W/m2 CLR
01:16 -14.4 °C -16.3 °C 34774.2 hPa NNE 18.2 km/h 18.2 km/h 79 % 0 mm 0.0 W/m2 CLR
01:17 -14.4 °C -16.3 °C 34774.2 hPa North 18.2 km/h 18.2 km/h 79 % 0 mm 0.0 W/m2 CLR
01:22 -14.4 °C -16.3 °C 34774.2 hPa North 23.8 km/h 23.8 km/h 79 % 0 mm 0.0 W/m2 CLR
01:25 -14.4 °C -16.3 °C 34774.2 hPa NNW 20.9 km/h 20.9 km/h 79 % 0 mm 0.0 W/m2 CLR
01:30 -14.4 °C -16.3 °C 34774.2 hPa NNW 17.9 km/h 17.9 km/h 78 % 0 mm 0.0 W/m2 CLR
01:31 -14.4 °C -16.3 °C 34784.4 hPa NNW 11.9 km/h 11.9 km/h 78 % 0 mm 0.0 W/m2 CLR
01:36 -14.1 °C -16.1 °C 34784.4 hPa Calm     78 % 0 mm 0.0 W/m2 CLR
01:41 -14.4 °C -16.3 °C 34797.9 hPa Calm     79 % 0 mm 0.0 W/m2 CLR
01:46 -14.4 °C -16.3 °C 34784.4 hPa Calm     79 % 0 mm 0.0 W/m2 CLR
01:47 -14.4 °C -16.3 °C 34784.4 hPa Calm     79 % 0 mm 0.0 W/m2 CLR
01:52 -14.7 °C -16.6 °C 34784.4 hPa Calm     79 % 0 mm 0.0 W/m2 CLR
01:53 -14.7 °C -16.4 °C 34797.9 hPa Calm     80 % 0 mm 0.0 W/m2 CLR
01:58 -14.7 °C -16.4 °C 34797.9 hPa NNW 17.9 km/h 17.9 km/h 80 % 0 mm 0.0 W/m2 CLR
02:01 -14.7 °C -16.3 °C 34797.9 hPa NW 11.9 km/h 11.9 km/h 81 % 0 mm 0.0 W/m2 CLR
02:04 -14.7 °C -16.3 °C 34797.9 hPa NW 10.3 km/h 10.3 km/h 81 % 0 mm 0.0 W/m2 CLR
02:09 -15 °C -16.7 °C 34797.9 hPa Calm     81 % 0 mm 0.0 W/m2 CLR
02:10 -15 °C -16.7 °C 34797.9 hPa Calm     81 % 0 mm 0.0 W/m2 CLR
02:11 -15 °C -16.7 °C 34797.9 hPa Calm     81 % 0 mm 0.0 W/m2 CLR
02:16 -15.3 °C -17 °C 34808.1 hPa Calm     81 % 0 mm 0.0 W/m2 CLR
02:17 -15.3 °C -17 °C 34808.1 hPa Calm     81 % 0 mm 0.0 W/m2 CLR
02:22 -15.3 °C -17.1 °C 34808.1 hPa Calm     80 % 0 mm 0.0 W/m2 CLR
02:26 -15.6 °C -17.3 °C 34808.1 hPa Calm     80 % 0 mm 0.0 W/m2 CLR
02:27 -15.6 °C -17.3 °C 34808.1 hPa Calm     80 % 0 mm 0.0 W/m2 CLR
02:32 -15.6 °C -17.3 °C 34808.1 hPa Calm     80 % 0 mm 0.0 W/m2 CLR
02:34 -15.6 °C -17.3 °C 34797.9 hPa Calm     80 % 0 mm 0.0 W/m2 CLR
02:36 -15.9 °C -17.7 °C 34808.1 hPa Calm     79 % 0 mm 0.0 W/m2 CLR
02:39 -15.9 °C -17.7 °C 34808.1 hPa Calm     79 % 0 mm 0.0 W/m2 CLR
02:41 -15.9 °C -17.7 °C 34808.1 hPa Calm     79 % 0 mm 0.0 W/m2 CLR
02:46 -15.9 °C -17.7 °C 34808.1 hPa Calm     79 % 0 mm 0.0 W/m2 CLR
02:51 -15.9 °C -17.7 °C 34818.2 hPa Calm     79 % 0 mm 0.0 W/m2 CLR
02:52 -16.2 °C -18.2 °C 34818.2 hPa Calm     78 % 0 mm 0.0 W/m2 CLR
02:57 -16.2 °C -18.2 °C 34831.8 hPa Calm     78 % 0 mm 0.0 W/m2 CLR
03:02 -16.6 °C -18.4 °C 34818.2 hPa Calm     79 % 0 mm 0.0 W/m2 CLR
03:03 -16.6 °C -18.4 °C 34818.2 hPa Calm     79 % 0 mm 0.0 W/m2 CLR
03:08 -16.6 °C -18.3 °C 34831.8 hPa Calm     80 % 0 mm 0.0 W/m2 CLR
03:09 -16.6 °C -18.3 °C 34831.8 hPa Calm     80 % 0 mm 0.0 W/m2 CLR
03:14 -16.6 °C -18.3 °C 34831.8 hPa Calm     80 % 0 mm 0.0 W/m2 CLR
03:15 -16.6 °C -18.3 °C 34831.8 hPa Calm     80 % 0 mm 0.0 W/m2 CLR
03:20 -16.8 °C -18.6 °C 34831.8 hPa Calm     80 % 0 mm 0.0 W/m2 CLR
03:25 -16.8 °C -18.6 °C 34831.8 hPa Calm     80 % 0 mm 0.0 W/m2 CLR
03:26 -16.8 °C -18.6 °C 34831.8 hPa Calm     80 % 0 mm 0.0 W/m2 CLR
03:29 -16.6 °C -18.3 °C 34831.8 hPa Calm     80 % 0 mm 0.0 W/m2 CLR
03:32 -16.6 °C -18.2 °C 34831.8 hPa Calm     81 % 0 mm 0.0 W/m2 CLR
03:37 -16.2 °C -17.8 °C 34841.9 hPa Calm     82 % 0 mm 0.0 W/m2 CLR
03:42 -16.2 °C -17.8 °C 34841.9 hPa NW 26.9 km/h 26.9 km/h 82 % 0 mm 0.0 W/m2 CLR
03:44 -15.9 °C -17.4 °C 34841.9 hPa West 29.8 km/h 29.8 km/h 82 % 0 mm 0.0 W/m2 CLR
03:48 -15.9 °C -17.6 °C 34831.8 hPa West 29.8 km/h 29.8 km/h 81 % 0 mm 0.0 W/m2 CLR
03:52 -15.9 °C -17.7 °C 34831.8 hPa West 23.8 km/h 23.8 km/h 80 % 0 mm 0.0 W/m2 CLR
03:55 -15.9 °C -17.7 °C 34841.9 hPa WNW 26.9 km/h 26.9 km/h 80 % 0 mm 0.0 W/m2 CLR
03:57 -15.9 °C -17.7 °C 34831.8 hPa NW 26.9 km/h 26.9 km/h 80 % 0 mm 0.0 W/m2 CLR
04:02 -15.3 °C -17.2 °C 34841.9 hPa WNW 26.9 km/h 26.9 km/h 79 % 0 mm 0.0 W/m2 CLR
04:07 -15.3 °C -17.2 °C 34841.9 hPa WNW 26.9 km/h 26.9 km/h 79 % 0 mm 0.0 W/m2 CLR
04:09 -15.3 °C -17.2 °C 34841.9 hPa WNW 17.9 km/h 17.9 km/h 79 % 0 mm 0.0 W/m2 CLR
04:15 -15 °C -16.9 °C 34841.9 hPa West 15.6 km/h 15.6 km/h 78 % 0 mm 0.0 W/m2 CLR
04:16 -14.7 °C -16.7 °C 34841.9 hPa West 17.9 km/h 17.9 km/h 78 % 0 mm 0.0 W/m2 CLR
04:20 -14.4 °C -16.3 °C 34841.9 hPa West 18.2 km/h 18.2 km/h 78 % 0 mm 0.0 W/m2 CLR
04:22 -14.4 °C -16.3 °C 34841.9 hPa West 20.9 km/h 20.9 km/h 78 % 0 mm 0.0 W/m2 CLR
04:27 -14.1 °C -15.9 °C 34841.9 hPa West 29.8 km/h 29.8 km/h 79 % 0 mm 0.0 W/m2 CLR
04:30 -14.1 °C -15.9 °C 34841.9 hPa West 29.8 km/h 29.8 km/h 79 % 0 mm 0.0 W/m2 CLR
04:32 -14.4 °C -16.3 °C 34841.9 hPa West 29.8 km/h 29.8 km/h 79 % 0 mm 0.0 W/m2 CLR
04:35 -14.4 °C -16.3 °C 34841.9 hPa West 29.8 km/h 29.8 km/h 79 % 0 mm 0.0 W/m2 CLR
04:40 -14.4 °C -16.3 °C 34841.9 hPa West 23.3 km/h 23.3 km/h 79 % 0 mm 0.0 W/m2 CLR
04:42 -14.7 °C -16.6 °C 34841.9 hPa WNW 29.8 km/h 29.8 km/h 79 % 0 mm 0.0 W/m2 CLR
04:47 -14.7 °C -16.6 °C 34852.1 hPa WNW 26.9 km/h 26.9 km/h 79 % 0 mm 0.0 W/m2 CLR
04:52 -15 °C -16.8 °C 34852.1 hPa West 23.8 km/h 23.8 km/h 79 % 0 mm 0.0 W/m2 CLR
04:53 -15 °C -16.8 °C 34852.1 hPa West 20.9 km/h 20.9 km/h 79 % 0 mm 0.0 W/m2 CLR
04:58 -15 °C -16.8 °C 34852.1 hPa West 18.2 km/h 18.2 km/h 79 % 0 mm 0.0 W/m2 CLR
05:02 -14.7 °C -16.6 °C 34852.1 hPa West 26.9 km/h 26.9 km/h 79 % 0 mm 0.0 W/m2 CLR
05:04 -15 °C -16.8 °C 34852.1 hPa West 17.9 km/h 17.9 km/h 79 % 0 mm 0.0 W/m2 CLR
05:09 -14.7 °C -16.6 °C 34852.1 hPa West 23.8 km/h 23.8 km/h 79 % 0 mm 0.0 W/m2 CLR
05:14 -15 °C -16.8 °C 34865.6 hPa West 26.9 km/h 26.9 km/h 80 % 0 mm 0.0 W/m2 CLR
05:19 -15 °C -16.8 °C 34865.6 hPa West 23.8 km/h 23.8 km/h 80 % 0 mm 0.0 W/m2 CLR
05:24 -15.3 °C -17.2 °C 34865.6 hPa West 18.2 km/h 18.2 km/h 79 % 0 mm 0.0 W/m2 CLR
05:25 -15.3 °C -17.2 °C 34865.6 hPa West 15 km/h 15 km/h 79 % 0 mm 0.0 W/m2 CLR
05:30 -15.6 °C -17.3 °C 34865.6 hPa West 12.9 km/h 12.9 km/h 80 % 0 mm 0.0 W/m2 CLR
05:31 -15.6 °C -17.3 °C 34865.6 hPa West 20.9 km/h 20.9 km/h 80 % 0 mm 0.0 W/m2 CLR
05:32 -15.9 °C -17.7 °C 34865.6 hPa WNW 17.9 km/h 17.9 km/h 80 % 0 mm 0.0 W/m2 CLR
05:36 -15.9 °C -17.7 °C 34865.6 hPa West 17.9 km/h 17.9 km/h 80 % 0 mm 0.0 W/m2 CLR
05:41 -16.2 °C -17.9 °C 34865.6 hPa Calm     80 % 0 mm 0.0 W/m2 CLR
05:43 -16.2 °C -17.9 °C 34865.6 hPa Calm     80 % 0 mm 0.0 W/m2 CLR
05:48 -16.6 °C -18.3 °C 34865.6 hPa West 11.9 km/h 11.9 km/h 80 % 0 mm 0.0 W/m2 CLR
05:52 -16.6 °C -18.3 °C 34865.6 hPa West 20.9 km/h 20.9 km/h 80 % 0 mm 0.0 W/m2 CLR
05:56 -16.6 °C -18.2 °C 34875.8 hPa WNW 23.8 km/h 23.8 km/h 81 % 0 mm 0.0 W/m2 CLR
05:58 -16.6 °C -18.2 °C 34875.8 hPa West 26.9 km/h 26.9 km/h 81 % 0 mm 0.0 W/m2 CLR
06:03 -16.8 °C -18.6 °C 34875.8 hPa WNW 17.9 km/h 17.9 km/h 80 % 0 mm 0.0 W/m2 CLR
06:07 -16.8 °C -18.6 °C 34875.8 hPa West 26.9 km/h 26.9 km/h 80 % 0 mm 0.0 W/m2 CLR
06:08 -16.8 °C -18.6 °C 34875.8 hPa West 23.8 km/h 23.8 km/h 80 % 0 mm 0.0 W/m2 CLR
06:13 -17.2 °C -18.9 °C 34889.3 hPa West 17.9 km/h 17.9 km/h 79 % 0 mm 0.0 W/m2 CLR
06:18 -17.2 °C -18.9 °C 34889.3 hPa West 23.8 km/h 23.8 km/h 79 % 0 mm 0.0 W/m2 CLR
06:19 -17.2 °C -18.9 °C 34889.3 hPa West 26.9 km/h 26.9 km/h 79 % 0 mm 0.0 W/m2 CLR
06:20 -16.8 °C -18.7 °C 34889.3 hPa West 26.9 km/h 26.9 km/h 79 % 0 mm 0.0 W/m2 CLR
06:25 -15.9 °C -17.7 °C 34889.3 hPa West 26.9 km/h 26.9 km/h 79 % 0 mm 0.0 W/m2 CLR
06:26 -15.9 °C -17.7 °C 34889.3 hPa West 26.9 km/h 26.9 km/h 79 % 0 mm 0.0 W/m2 CLR
06:28 -15.6 °C -17.4 °C 34889.3 hPa West 26.9 km/h 26.9 km/h 79 % 0 mm 0.0 W/m2 CLR
06:32 -15.3 °C -17.1 °C 34889.3 hPa WNW 23.8 km/h 23.8 km/h 80 % 0 mm 0.0 W/m2 CLR
06:38 -15.3 °C -17.1 °C 34899.5 hPa WNW 29.8 km/h 29.8 km/h 80 % 0 mm 0.0 W/m2 CLR
06:39 -15.3 °C -17.1 °C 34899.5 hPa WNW 26.9 km/h 26.9 km/h 80 % 0 mm 0.0 W/m2 CLR
06:44 -15.3 °C -17.1 °C 34899.5 hPa WNW 32.8 km/h 32.8 km/h 80 % 0 mm 0.0 W/m2 CLR
06:49 -15.3 °C -17.2 °C 34899.5 hPa WNW 29.8 km/h 29.8 km/h 79 % 0 mm 0.0 W/m2 CLR
06:52 -15 °C -16.8 °C 34899.5 hPa WNW 32.8 km/h 32.8 km/h 79 % 0 mm 0.0 W/m2 CLR
06:54 -15 °C -16.9 °C 34899.5 hPa WNW 26.9 km/h 26.9 km/h 78 % 0 mm 0.0 W/m2 CLR
06:57 -15 °C -16.9 °C 34899.5 hPa WNW 26.9 km/h 26.9 km/h 78 % 0 mm 0.0 W/m2 CLR
07:01 -15.3 °C -17.3 °C 34899.5 hPa WNW 26.9 km/h 26.9 km/h 78 % 0 mm 0.0 W/m2 CLR
07:02 -15.3 °C -17.3 °C 34899.5 hPa WNW 29.8 km/h 29.8 km/h 78 % 0 mm 0.0 W/m2 CLR
07:07 -15.3 °C -17.3 °C 34899.5 hPa WNW 26.9 km/h 26.9 km/h 78 % 0 mm 0.0 W/m2 CLR
07:08 -15.3 °C -17.3 °C 34909.7 hPa WNW 23.8 km/h 23.8 km/h 78 % 0 mm 0.0 W/m2 CLR
07:13 -15.3 °C -17.3 °C 34909.7 hPa WNW 29.8 km/h 29.8 km/h 78 % 0 mm 0.0 W/m2 CLR
07:17 -15.3 °C -17.3 °C 34909.7 hPa WNW 29.8 km/h 29.8 km/h 78 % 0 mm 0.0 W/m2 CLR
07:18 -15.3 °C -17.3 °C 34909.7 hPa WNW 29.8 km/h 29.8 km/h 78 % 0 mm 0.0 W/m2 CLR
07:23 -15.3 °C -17.3 °C 34909.7 hPa West 32.8 km/h 32.8 km/h 78 % 0 mm 0.0 W/m2 CLR
07:25 -15.3 °C -17.3 °C 34909.7 hPa West 26.9 km/h 26.9 km/h 78 % 0 mm 0.0 W/m2 CLR
07:26 -15.3 °C -17.3 °C 34909.7 hPa WNW 32.8 km/h 32.8 km/h 77 % 0 mm 0.0 W/m2 CLR
07:30 -15.3 °C -17.3 °C 34909.7 hPa WNW 26.9 km/h 26.9 km/h 77 % 0 mm 0.0 W/m2 CLR
07:31 -15.3 °C -17.3 °C 34909.7 hPa West 29.8 km/h 29.8 km/h 77 % 0 mm 0.0 W/m2 CLR
07:33 -15.3 °C -17.3 °C 34909.7 hPa WNW 29.8 km/h 29.8 km/h 77 % 0 mm 0.0 W/m2 CLR
07:36 -15.3 °C -17.3 °C 34923.2 hPa West 29.8 km/h 29.8 km/h 77 % 0 mm 0.0 W/m2 CLR
07:41 -15.3 °C -17.3 °C 34923.2 hPa West 23.8 km/h 23.8 km/h 77 % 0 mm 0.0 W/m2 CLR
07:42 -15.3 °C -17.3 °C 34923.2 hPa WNW 23.8 km/h 23.8 km/h 77 % 0 mm 0.0 W/m2 CLR
07:44 -15.3 °C -17.3 °C 34923.2 hPa WNW 20.9 km/h 20.9 km/h 77 % 0 mm 0.0 W/m2 CLR
07:49 -15.3 °C -17.4 °C 34933.4 hPa WNW 23.3 km/h 23.3 km/h 76 % 0 mm 0.0 W/m2 CLR
07:50 -15.3 °C -17.4 °C 34923.2 hPa WNW 26.9 km/h 26.9 km/h 76 % 0 mm 0.0 W/m2 CLR
07:55 -15.3 °C -17.4 °C 34933.4 hPa WNW 26.9 km/h 26.9 km/h 76 % 0 mm 0.0 W/m2 CLR
08:00 -15.3 °C -17.4 °C 34933.4 hPa WNW 26.9 km/h 26.9 km/h 76 % 0 mm 0.0 W/m2 CLR
08:02 -15.6 °C -17.7 °C 34933.4 hPa WNW 23.8 km/h 23.8 km/h 76 % 0 mm 0.0 W/m2 CLR
08:07 -15.6 °C -17.9 °C 34946.9 hPa West 15 km/h 15 km/h 75 % 0 mm 0.0 W/m2 CLR
08:08 -15.6 °C -17.9 °C 34946.9 hPa WNW 15 km/h 15 km/h 75 % 0 mm 0.0 W/m2 CLR
08:13 -15.9 °C -18.2 °C 34946.9 hPa WNW 26.9 km/h 26.9 km/h 75 % 0 mm 0.0 W/m2 OVC
08:14 -15.9 °C -18.2 °C 34946.9 hPa WNW 26.9 km/h 26.9 km/h 75 % 0 mm 0.0 W/m2 OVC
08:18 -16.2 °C -18.6 °C 34946.9 hPa West 26.9 km/h 26.9 km/h 74 % 0 mm 0.0 W/m2 OVC
08:20 -16.2 °C -18.6 °C 34957.1 hPa WNW 15 km/h 15 km/h 74 % 0 mm 5.0 W/m2 OVC
08:24 -16.6 °C -18.8 °C 34957.1 hPa Calm     74 % 0 mm 7.0 W/m2 OVC
08:29 -16.8 °C -19.1 °C 34957.1 hPa WNW 9 km/h 9 km/h 75 % 0 mm 9.0 W/m2 BKN
08:30 -16.8 °C -19.1 °C 34957.1 hPa West 9 km/h 9 km/h 75 % 0 mm 9.0 W/m2 BKN
08:35 -16.8 °C -19.1 °C 34957.1 hPa West 5.1 km/h 5.1 km/h 75 % 0 mm 11.0 W/m2 BKN
08:36 -16.8 °C -19.1 °C 34957.1 hPa WNW 9 km/h 9 km/h 75 % 0 mm 11.0 W/m2 BKN
08:41 -17.2 °C -19.3 °C 34957.1 hPa WNW 15 km/h 15 km/h 75 % 0 mm 12.0 W/m2 BKN
08:42 -17.2 °C -19.3 °C 34957.1 hPa WNW 7.7 km/h 7.7 km/h 76 % 0 mm 14.0 W/m2 BKN
08:44 -17.2 °C -19.3 °C 34957.1 hPa WNW 10.3 km/h 10.3 km/h 76 % 0 mm 14.0 W/m2 BKN
08:49 -17.2 °C -19.3 °C 34957.1 hPa West 9 km/h 9 km/h 76 % 0 mm 18.0 W/m2 BKN
08:52 -17.4 °C -19.7 °C 34967.2 hPa Calm     75 % 0 mm 19.0 W/m2 BKN
08:54 -17.4 °C -19.7 °C 34967.2 hPa Calm     75 % 0 mm 23.0 W/m2 BKN
08:58 -17.4 °C -19.7 °C 34967.2 hPa Calm     75 % 0 mm 26.0 W/m2 BKN
09:00 -17.4 °C -19.7 °C 34967.2 hPa West 6 km/h   75 % 0 mm 37.0 W/m2 BKN
09:05 -17.4 °C -19.8 °C 34980.8 hPa West 9 km/h 9 km/h 74 % 0 mm 47.0 W/m2 BKN
09:06 -17.4 °C -19.8 °C 34980.8 hPa West 9 km/h 9 km/h 74 % 0 mm 47.0 W/m2 BKN
09:11 -17.4 °C -19.8 °C 34980.8 hPa WNW 7.7 km/h 7.7 km/h 74 % 0 mm 58.0 W/m2 SCT
09:12 -17.4 °C -19.8 °C 34990.9 hPa West 10.3 km/h 10.3 km/h 74 % 0 mm 53.0 W/m2 SCT
09:17 -17.2 °C -19.7 °C 34980.8 hPa WSW 20.9 km/h 20.9 km/h 72 % 0 mm 72.0 W/m2 FEW
09:18 -17.2 °C -19.7 °C 34990.9 hPa WSW 20.9 km/h   72 % 0 mm 74.0 W/m2 FEW
09:23 -17.2 °C -19.7 °C 34990.9 hPa Calm   2.1 km/h 72 % 0 mm 84.0 W/m2 FEW
09:28 -16.8 °C -19.5 °C 34990.9 hPa WNW 28.5 km/h 28.5 km/h 71 % 0 mm 90.0 W/m2 FEW
09:29 -16.8 °C -19.7 °C 34990.9 hPa NW 29.8 km/h 29.8 km/h 69 % 0 mm 81.0 W/m2 CLR
09:30 -16.6 °C -19.4 °C 35001.1 hPa WNW 29.8 km/h 29.8 km/h 69 % 0 mm 104.0 W/m2 CLR
09:35 -15.9 °C -18.9 °C 35001.1 hPa WNW 20.9 km/h 20.9 km/h 68 % 0 mm 118.0 W/m2 CLR
09:36 -15.9 °C -18.9 °C 34990.9 hPa WNW 20.9 km/h 20.9 km/h 68 % 0 mm 118.0 W/m2 CLR
09:37 -15.6 °C -18.6 °C 35001.1 hPa West 31.1 km/h 31.1 km/h 68 % 0 mm 123.0 W/m2 CLR
09:42 -15.3 °C -18.4 °C 34990.9 hPa West 26.9 km/h 26.9 km/h 67 % 0 mm 132.0 W/m2 CLR
09:46 -15.3 °C -18.5 °C 35001.1 hPa NW 29.8 km/h 29.8 km/h 66 % 0 mm 148.0 W/m2 CLR
09:49 -15 °C -18.2 °C 35001.1 hPa NW 23.8 km/h 23.8 km/h 66 % 0 mm 156.0 W/m2 CLR
09:54 -14.7 °C -17.9 °C 35001.1 hPa NW 33.6 km/h 33.6 km/h 66 % 0 mm 172.0 W/m2 CLR
09:57 -14.7 °C -17.9 °C 35014.6 hPa WNW 29.8 km/h 29.8 km/h 66 % 0 mm 151.0 W/m2 CLR
09:59 -14.4 °C -17.8 °C 35001.1 hPa WNW 29.8 km/h 29.8 km/h 65 % 0 mm 125.0 W/m2 CLR
10:03 -14.4 °C -17.7 °C 35014.6 hPa WNW 26.9 km/h 26.9 km/h 66 % 0 mm 158.0 W/m2 CLR
10:06 -14.4 °C -17.8 °C 35014.6 hPa NNW 23.8 km/h 23.8 km/h 65 % 0 mm 121.0 W/m2 CLR
10:10 -14.1 °C -17.4 °C 35014.6 hPa NW 29.8 km/h 29.8 km/h 65 % 0 mm 171.0 W/m2 CLR
10:16 -14.1 °C -17.6 °C 35024.8 hPa NW 26.9 km/h 26.9 km/h 64 % 0 mm 229.0 W/m2 CLR
10:21 -14.1 °C -17.6 °C 35024.8 hPa WNW 29.8 km/h 29.8 km/h 64 % 0 mm 243.0 W/m2 CLR
10:22 -14.1 °C -17.7 °C 35024.8 hPa WNW 29.8 km/h 29.8 km/h 63 % 0 mm 246.0 W/m2 CLR
10:27 -14.1 °C -17.6 °C 35024.8 hPa WNW 26.9 km/h 26.9 km/h 64 % 0 mm 257.0 W/m2 CLR
10:29 -14.1 °C -17.7 °C 35024.8 hPa WNW 32.8 km/h 32.8 km/h 63 % 0 mm 260.0 W/m2 CLR
10:33 -13.8 °C -17.6 °C 35024.8 hPa NW 50.7 km/h 50.7 km/h 62 % 0 mm 269.0 W/m2 CLR
10:34 -13.8 °C -17.6 °C 35024.8 hPa NW 35.7 km/h 35.7 km/h 62 % 0 mm 271.0 W/m2 CLR
10:39 -13.8 °C -17.8 °C 35038.3 hPa NW 38.8 km/h 38.8 km/h 60 % 0 mm 281.0 W/m2 CLR
10:40 -13.8 °C -17.8 °C 35038.3 hPa WNW 38.8 km/h 38.8 km/h 60 % 0 mm 285.0 W/m2 CLR
10:45 -13.8 °C -17.8 °C 35038.3 hPa NW 35.7 km/h 35.7 km/h 60 % 0 mm 294.0 W/m2 CLR
10:50 -13.8 °C -17.8 °C 35038.3 hPa NW 36.2 km/h 36.2 km/h 60 % 0 mm 302.0 W/m2 CLR
10:52 -13.4 °C -17.5 °C 35038.3 hPa WNW 35.7 km/h 35.7 km/h 60 % 0 mm 306.0 W/m2 CLR
10:56 -13.4 °C -17.5 °C 35038.3 hPa NW 32.8 km/h 32.8 km/h 60 % 0 mm 313.0 W/m2 CLR
11:01 -13.4 °C -17.5 °C 35038.3 hPa NW 35.7 km/h 35.7 km/h 60 % 0 mm 322.0 W/m2 CLR
11:02 -13.4 °C -17.5 °C 35038.3 hPa NW 38.8 km/h 38.8 km/h 60 % 0 mm 325.0 W/m2 CLR
11:07 -13.4 °C -17.5 °C 35038.3 hPa NW 38.8 km/h 38.8 km/h 60 % 0 mm 330.0 W/m2 CLR
11:12 -13.4 °C -17.5 °C 35048.5 hPa NNW 38.8 km/h 38.8 km/h 60 % 0 mm 339.0 W/m2 CLR
11:13 -13.4 °C -17.5 °C 35048.5 hPa NNW 38.8 km/h 38.8 km/h 60 % 0 mm 341.0 W/m2 CLR
11:17 -13.4 °C -17.6 °C 35048.5 hPa West 38.8 km/h 38.8 km/h 59 % 0 mm 346.0 W/m2 CLR
11:20 -13.4 °C -17.6 °C 35048.5 hPa WNW 32.8 km/h 32.8 km/h 59 % 0 mm 352.0 W/m2 CLR
11:25 -13.4 °C -17.8 °C 35038.3 hPa WNW 23.8 km/h 23.8 km/h 58 % 0 mm 359.0 W/m2 CLR
11:26 -13.4 °C -17.6 °C 35038.3 hPa WNW 33.6 km/h 33.6 km/h 59 % 0 mm 359.0 W/m2 CLR
11:31 -13.4 °C -17.8 °C 35038.3 hPa NW 41.7 km/h 41.7 km/h 58 % 0 mm 367.0 W/m2 CLR
11:36 -13.2 °C -17.4 °C 35038.3 hPa NW 33.6 km/h 33.6 km/h 58 % 0 mm 374.0 W/m2 CLR
11:37 -13.2 °C -17.4 °C 35038.3 hPa WNW 32.8 km/h 32.8 km/h 58 % 0 mm 374.0 W/m2 CLR
11:42 -13.2 °C -17.3 °C 35038.3 hPa NNW 38.8 km/h 38.8 km/h 59 % 0 mm 381.0 W/m2 CLR
11:43 -13.2 °C -17.3 °C 35038.3 hPa NNW 38.8 km/h 38.8 km/h 59 % 0 mm 381.0 W/m2 CLR
11:46 -13.2 °C -17.4 °C 35038.3 hPa NW 32.8 km/h 32.8 km/h 58 % 0 mm 387.0 W/m2 CLR
11:51 -13.2 °C -17.4 °C 35038.3 hPa NW 26.9 km/h 26.9 km/h 58 % 0 mm 390.0 W/m2 CLR
11:53 -13.2 °C -17.6 °C 35038.3 hPa WNW 29.8 km/h 29.8 km/h 57 % 0 mm 392.0 W/m2 CLR
11:58 -13.2 °C -17.4 °C 35038.3 hPa North 36.2 km/h 36.2 km/h 58 % 0 mm 397.0 W/m2 CLR
12:03 -12.8 °C -17.4 °C 35038.3 hPa WNW 29.8 km/h 29.8 km/h 56 % 0 mm 403.0 W/m2 CLR
12:04 -13.2 °C -17.6 °C 35038.3 hPa NW 29.8 km/h 29.8 km/h 57 % 0 mm 403.0 W/m2 CLR
12:09 -12.8 °C -17.4 °C 35038.3 hPa NW 38.8 km/h 38.8 km/h 56 % 0 mm 406.0 W/m2 CLR
12:10 -12.8 °C -17.4 °C 35038.3 hPa WNW 38.8 km/h 38.8 km/h 56 % 0 mm 404.0 W/m2 CLR
12:15 -12.8 °C -17.3 °C 35038.3 hPa WNW 29.8 km/h 29.8 km/h 57 % 0 mm 410.0 W/m2 CLR
12:16 -12.8 °C -17.3 °C 35038.3 hPa NW 26.9 km/h 26.9 km/h 57 % 0 mm 410.0 W/m2 CLR
12:18 -12.8 °C -17.3 °C 35024.8 hPa WNW 44.1 km/h 44.1 km/h 57 % 0 mm 413.0 W/m2 CLR
12:21 -12.8 °C -17.4 °C 35024.8 hPa NNW 38.8 km/h 38.8 km/h 56 % 0 mm 415.0 W/m2 CLR
12:25 -12.8 °C -17.4 °C 35024.8 hPa NW 29.8 km/h 29.8 km/h 56 % 0 mm 415.0 W/m2 CLR
12:27 -12.8 °C -17.4 °C 35024.8 hPa NW 32.8 km/h 32.8 km/h 56 % 0 mm 418.0 W/m2 CLR
12:30 -12.8 °C -17.6 °C 35024.8 hPa WNW 26.9 km/h 26.9 km/h 55 % 0 mm 420.0 W/m2 CLR
12:35 -12.8 °C -17.6 °C 35024.8 hPa NW 29.8 km/h 29.8 km/h 55 % 0 mm 422.0 W/m2 CLR
12:40 -12.8 °C -17.6 °C 35024.8 hPa NW 20.9 km/h 20.9 km/h 55 % 0 mm 422.0 W/m2 CLR
12:41 -12.8 °C -17.6 °C 35024.8 hPa NW 23.3 km/h 23.3 km/h 55 % 0 mm 422.0 W/m2 CLR
12:46 -12.6 °C -17.4 °C 35024.8 hPa NW 44.7 km/h 44.7 km/h 54 % 0 mm 424.0 W/m2 CLR
12:48 -12.6 °C -17.4 °C 35024.8 hPa North 31.1 km/h 31.1 km/h 54 % 0 mm 425.0 W/m2 CLR
12:49 -12.6 °C -17.4 °C 35024.8 hPa NNW 29.8 km/h 29.8 km/h 54 % 0 mm 425.0 W/m2 CLR
12:54 -12.6 °C -17.4 °C 35024.8 hPa NW 35.7 km/h 35.7 km/h 54 % 0 mm 425.0 W/m2 CLR
12:59 -12.6 °C -17.4 °C 35024.8 hPa NNW 29.8 km/h 29.8 km/h 54 % 0 mm 424.0 W/m2 CLR
13:03 -12.6 °C -17.6 °C 35024.8 hPa NNW 35.7 km/h 35.7 km/h 53 % 0 mm 424.0 W/m2 CLR
13:05 -12.6 °C -17.6 °C 35024.8 hPa North 41.4 km/h 41.4 km/h 53 % 0 mm 424.0 W/m2 CLR
13:10 -12.2 °C -17.4 °C 35024.8 hPa NW 29.8 km/h 29.8 km/h 52 % 0 mm 424.0 W/m2 CLR
13:11 -12.2 °C -17.4 °C 35024.8 hPa NNW 32.8 km/h 32.8 km/h 52 % 0 mm 424.0 W/m2 CLR
13:15 -12.6 °C -17.7 °C 35038.3 hPa NNW 32.8 km/h 32.8 km/h 52 % 0 mm 424.0 W/m2 CLR
13:20 -12.2 °C -17.6 °C 35024.8 hPa NNW 33.6 km/h 33.6 km/h 51 % 0 mm 422.0 W/m2 CLR
13:22 -12.6 °C -17.7 °C 35024.8 hPa NNW 32.8 km/h 32.8 km/h 52 % 0 mm 420.0 W/m2 CLR
13:26 -12.6 °C -17.7 °C 35024.8 hPa NNW 20.9 km/h 20.9 km/h 52 % 0 mm 420.0 W/m2 CLR
13:31 -12.2 °C -17.6 °C 35024.8 hPa NW 29.8 km/h 29.8 km/h 51 % 0 mm 418.0 W/m2 CLR
13:34 -12.2 °C -17.6 °C 35014.6 hPa WNW 29.8 km/h 29.8 km/h 51 % 0 mm 415.0 W/m2 CLR
13:36 -12.2 °C -17.7 °C 35014.6 hPa WNW 29.8 km/h 29.8 km/h 50 % 0 mm 415.0 W/m2 CLR
13:41 -12.2 °C -17.6 °C 35014.6 hPa North 38.8 km/h 38.8 km/h 51 % 0 mm 413.0 W/m2 CLR
13:42 -12.2 °C -17.6 °C 35014.6 hPa NNW 38.8 km/h 38.8 km/h 51 % 0 mm 411.0 W/m2 CLR
13:43 -12.2 °C -17.6 °C 35014.6 hPa WNW 33.6 km/h 33.6 km/h 51 % 0 mm 410.0 W/m2 CLR
13:47 -11.9 °C -17.4 °C 35014.6 hPa WNW 29.8 km/h 29.8 km/h 50 % 0 mm 406.0 W/m2 CLR
13:52 -12.2 °C -17.6 °C 35001.1 hPa NW 35.7 km/h 35.7 km/h 51 % 0 mm 404.0 W/m2 CLR
13:53 -12.2 °C -17.6 °C 35001.1 hPa NW 35.7 km/h 35.7 km/h 51 % 0 mm 403.0 W/m2 CLR
13:58 -11.9 °C -17.4 °C 35001.1 hPa North 35.7 km/h 35.7 km/h 50 % 0 mm 399.0 W/m2 CLR
14:03 -11.9 °C -17.6 °C 35001.1 hPa NNW 29.8 km/h 29.8 km/h 49 % 0 mm 394.0 W/m2 CLR
14:04 -11.9 °C -17.6 °C 35001.1 hPa NW 29.8 km/h 29.8 km/h 49 % 0 mm 394.0 W/m2 CLR
14:09 -11.9 °C -17.6 °C 35001.1 hPa NW 32.8 km/h 32.8 km/h 49 % 0 mm 387.0 W/m2 CLR
14:13 -11.9 °C -17.6 °C 35001.1 hPa North 32.8 km/h 32.8 km/h 49 % 0 mm 383.0 W/m2 CLR
14:14 -11.9 °C -17.6 °C 35014.6 hPa NW 23.8 km/h 23.8 km/h 49 % 0 mm 381.0 W/m2 CLR
14:19 -11.9 °C -17.6 °C 35001.1 hPa North 29.8 km/h 29.8 km/h 49 % 0 mm 376.0 W/m2 CLR
14:24 -11.9 °C -17.6 °C 35001.1 hPa NW 32.8 km/h 32.8 km/h 49 % 0 mm 369.0 W/m2 CLR
14:25 -11.9 °C -17.6 °C 35001.1 hPa NNW 32.8 km/h 32.8 km/h 49 % 0 mm 369.0 W/m2 CLR
14:30 -11.9 °C -17.6 °C 35014.6 hPa NNW 20.8 km/h 20.8 km/h 49 % 0 mm 362.0 W/m2 CLR
14:31 -11.9 °C -17.6 °C 35014.6 hPa NW 29.8 km/h 29.8 km/h 49 % 0 mm 360.0 W/m2 CLR
14:33 -11.9 °C -17.8 °C 35014.6 hPa NW 15.6 km/h 15.6 km/h 48 % 0 mm 357.0 W/m2 CLR
14:37 -11.9 °C -17.6 °C 35014.6 hPa NW 26.9 km/h 26.9 km/h 49 % 0 mm 352.0 W/m2 CLR
14:42 -11.9 °C -17.6 °C 35014.6 hPa NNW 29.8 km/h 29.8 km/h 49 % 0 mm 345.0 W/m2 CLR
14:47 -11.9 °C -17.6 °C 35001.1 hPa NNW 18.2 km/h 18.2 km/h 49 % 0 mm 338.0 W/m2 CLR
14:51 -11.6 °C -17.5 °C 35001.1 hPa NW 23.8 km/h 23.8 km/h 48 % 0 mm 332.0 W/m2 CLR
14:52 -11.6 °C -17.5 °C 35001.1 hPa NNW 28.5 km/h 28.5 km/h 48 % 0 mm 329.0 W/m2 CLR
14:54 -11.6 °C -17.5 °C 35001.1 hPa North 26.9 km/h 26.9 km/h 48 % 0 mm 325.0 W/m2 CLR
14:59 -11.6 °C -17.5 °C 35001.1 hPa WNW 31.1 km/h 31.1 km/h 48 % 0 mm 318.0 W/m2 CLR
15:00 -11.6 °C -17.5 °C 35001.1 hPa North 32.8 km/h 32.8 km/h 48 % 0 mm 316.0 W/m2 CLR
15:05 -11.9 °C -17.8 °C 34990.9 hPa NW 26.9 km/h 26.9 km/h 48 % 0 mm 308.0 W/m2 CLR
15:08 -11.9 °C -17.8 °C 34990.9 hPa WNW 20.9 km/h 20.9 km/h 48 % 0 mm 302.0 W/m2 CLR
15:13 -11.6 °C -17.5 °C 34990.9 hPa NNW 29.8 km/h 29.8 km/h 48 % 0 mm 294.0 W/m2 CLR
15:18 -11.6 °C -17.5 °C 34990.9 hPa NNW 29.8 km/h 29.8 km/h 48 % 0 mm 281.0 W/m2 CLR
15:23 -11.6 °C -17.5 °C 34990.9 hPa NW 35.7 km/h 35.7 km/h 48 % 0 mm 271.0 W/m2 CLR
15:24 -11.6 °C -17.5 °C 34990.9 hPa NW 26.9 km/h 26.9 km/h 48 % 0 mm 269.0 W/m2 CLR
15:25 -11.6 °C -17.5 °C 34990.9 hPa NW 26.9 km/h 26.9 km/h 48 % 0 mm 269.0 W/m2 CLR
15:30 -11.6 °C -17.5 °C 34990.9 hPa NW 26.9 km/h 26.9 km/h 48 % 0 mm 255.0 W/m2 CLR
15:32 -11.6 °C -17.5 °C 34990.9 hPa NW 23.8 km/h 23.8 km/h 48 % 0 mm 250.0 W/m2 CLR
15:33 -11.9 °C -17.8 °C 34990.9 hPa North 26.9 km/h 26.9 km/h 48 % 0 mm 246.0 W/m2 CLR
15:38 -11.9 °C -17.8 °C 35001.1 hPa NW 26.9 km/h 26.9 km/h 48 % 0 mm 234.0 W/m2 CLR
15:41 -11.9 °C -17.8 °C 35001.1 hPa WNW 29.8 km/h 29.8 km/h 48 % 0 mm 225.0 W/m2 CLR
15:43 -11.6 °C -17.5 °C 35001.1 hPa NNW 23.8 km/h 23.8 km/h 48 % 0 mm 221.0 W/m2 CLR
15:48 -11.9 °C -17.8 °C 35001.1 hPa NW 29.8 km/h 29.8 km/h 48 % 0 mm 207.0 W/m2 CLR
15:53 -11.9 °C -17.8 °C 35001.1 hPa NW 25.9 km/h 25.9 km/h 48 % 0 mm 195.0 W/m2 CLR
15:58 -12.2 °C -18.1 °C 35001.1 hPa NNW 29.8 km/h 29.8 km/h 48 % 0 mm 181.0 W/m2 CLR
16:03 -12.2 °C -18.1 °C 35001.1 hPa NNW 29.8 km/h 29.8 km/h 48 % 0 mm 169.0 W/m2 CLR
16:05 -12.2 °C -18.1 °C 35001.1 hPa NW 32.8 km/h 32.8 km/h 48 % 0 mm 162.0 W/m2 CLR
16:10 -12.2 °C -18.1 °C 35001.1 hPa NNW 29.8 km/h 29.8 km/h 48 % 0 mm 148.0 W/m2 CLR
16:11 -12.6 °C -18.4 °C 35001.1 hPa NNW 26.9 km/h 26.9 km/h 48 % 0 mm 146.0 W/m2 CLR
16:16 -12.6 °C -18.4 °C 35001.1 hPa NW 23.8 km/h 23.8 km/h 48 % 0 mm 130.0 W/m2 CLR
16:18 -12.6 °C -18.4 °C 35001.1 hPa NW 20.9 km/h 20.9 km/h 48 % 0 mm 128.0 W/m2 CLR
16:23 -12.6 °C -18.5 °C 34990.9 hPa NW 26.9 km/h 26.9 km/h 47 % 0 mm 114.0 W/m2 CLR
16:25 -12.6 °C -18.4 °C 35001.1 hPa NW 26.9 km/h 26.9 km/h 48 % 0 mm 107.0 W/m2 CLR
16:28 -12.6 °C -18.4 °C 34990.9 hPa North 29.8 km/h 29.8 km/h 48 % 0 mm 98.0 W/m2 CLR
16:33 -12.6 °C -18.4 °C 34990.9 hPa NNW 29.8 km/h 29.8 km/h 48 % 0 mm 86.0 W/m2 CLR
16:34 -12.6 °C -18.4 °C 35001.1 hPa NW 29.8 km/h 29.8 km/h 48 % 0 mm 84.0 W/m2 CLR
16:39 -12.6 °C -18.2 °C 35001.1 hPa NNW 26.9 km/h 26.9 km/h 49 % 0 mm 69.0 W/m2 FEW
16:44 -12.6 °C -18.2 °C 35001.1 hPa Calm     49 % 0 mm 54.0 W/m2 SCT
16:49 -12.8 °C -18.5 °C 35001.1 hPa NW 18.2 km/h 18.2 km/h 49 % 0 mm 47.0 W/m2 SCT
16:51 -12.8 °C -18.5 °C 34990.9 hPa NW 20.9 km/h 20.9 km/h 49 % 0 mm 46.0 W/m2 SCT
16:52 -12.8 °C -18.5 °C 34990.9 hPa NNW 28.5 km/h 28.5 km/h 49 % 0 mm 39.0 W/m2 BKN
16:56 -12.8 °C -18.5 °C 34990.9 hPa NW 23.8 km/h 23.8 km/h 49 % 0 mm 35.0 W/m2 BKN
17:00 -12.8 °C -18.5 °C 34990.9 hPa NW 17.9 km/h 17.9 km/h 49 % 0 mm 28.0 W/m2 BKN
17:01 -12.8 °C -18.5 °C 34990.9 hPa NW 15 km/h 15 km/h 49 % 0 mm 25.0 W/m2 BKN
17:06 -13.2 °C -18.6 °C 35001.1 hPa Calm     50 % 0 mm 19.0 W/m2 BKN
17:08 -13.2 °C -18.6 °C 35001.1 hPa NW 11.9 km/h 11.9 km/h 50 % 0 mm 18.0 W/m2 BKN
17:12 -13.2 °C -18.6 °C 35001.1 hPa NNW 20.8 km/h 20.8 km/h 50 % 0 mm 14.0 W/m2 BKN
17:17 -13.2 °C -18.4 °C 35001.1 hPa NNW 17.9 km/h 17.9 km/h 51 % 0 mm 12.0 W/m2 BKN
17:18 -13.2 °C -18.4 °C 35001.1 hPa NW 12.9 km/h 12.9 km/h 51 % 0 mm 12.0 W/m2 BKN
17:23 -13.4 °C -18.6 °C 35001.1 hPa NNW 15.6 km/h 15.6 km/h 52 % 0 mm 11.0 W/m2 BKN
17:24 -13.4 °C -18.6 °C 35001.1 hPa NW 15 km/h 15 km/h 52 % 0 mm 9.0 W/m2 BKN
17:26 -13.4 °C -18.6 °C 35001.1 hPa NW 11.9 km/h 11.9 km/h 52 % 0 mm 9.0 W/m2 BKN
17:31 -13.8 °C -18.7 °C 35001.1 hPa Calm     53 % 0 mm 5.0 W/m2 OVC
17:35 -14.1 °C -18.9 °C 35001.1 hPa Calm     54 % 0 mm 5.0 W/m2 OVC
17:37 -14.1 °C -18.9 °C 35001.1 hPa Calm     54 % 0 mm 0.0 W/m2 OVC
17:42 -14.4 °C -19.2 °C 35001.1 hPa Calm     54 % 0 mm 0.0 W/m2 OVC
17:43 -14.4 °C -19.2 °C 35014.6 hPa Calm     54 % 0 mm 0.0 W/m2 OVC
17:46 -14.7 °C -19.5 °C 35014.6 hPa Calm     54 % 0 mm 0.0 W/m2 CLR
17:48 -15 °C -19.8 °C 35014.6 hPa Calm     54 % 0 mm 0.0 W/m2 CLR
17:54 -15.3 °C -19.9 °C 35014.6 hPa Calm     55 % 0 mm 0.0 W/m2 CLR
17:57 -15.3 °C -19.9 °C 35014.6 hPa Calm     55 % 0 mm 0.0 W/m2 CLR
17:58 -15.3 °C -19.8 °C 35014.6 hPa Calm     56 % 0 mm 0.0 W/m2 CLR
18:02 -15.6 °C -20.1 °C 35014.6 hPa Calm     56 % 0 mm 0.0 W/m2 CLR
18:03 -15.6 °C -20.1 °C 35014.6 hPa Calm     56 % 0 mm 0.0 W/m2 CLR
18:08 -15.6 °C -19.9 °C 35014.6 hPa Calm     57 % 0 mm 0.0 W/m2 CLR
18:09 -15.6 °C -19.9 °C 35014.6 hPa Calm     57 % 0 mm 0.0 W/m2 CLR
18:14 -15.9 °C -20.1 °C 35014.6 hPa Calm     58 % 0 mm 0.0 W/m2 CLR
18:15 -15.9 °C -20.1 °C 35014.6 hPa Calm     58 % 0 mm 0.0 W/m2 CLR
18:16 -15.9 °C -19.9 °C 35014.6 hPa Calm     59 % 0 mm 0.0 W/m2 CLR
18:21 -16.2 °C -20.2 °C 35024.8 hPa Calm     59 % 0 mm 0.0 W/m2 CLR
18:22 -16.2 °C -20.2 °C 35024.8 hPa Calm     59 % 0 mm 0.0 W/m2 CLR
18:27 -16.6 °C -20.4 °C 35024.8 hPa Calm     60 % 0 mm 0.0 W/m2 CLR
18:28 -16.6 °C -20.4 °C 35024.8 hPa Calm     60 % 0 mm 0.0 W/m2 CLR
18:33 -16.6 °C -20.3 °C 35024.8 hPa Calm     61 % 0 mm 0.0 W/m2 CLR
18:34 -16.6 °C -20.3 °C 35024.8 hPa Calm     61 % 0 mm 0.0 W/m2 CLR
18:39 -16.8 °C -20.6 °C 35038.3 hPa Calm     61 % 0 mm 0.0 W/m2 CLR
18:40 -16.8 °C -20.6 °C 35038.3 hPa Calm     61 % 0 mm 0.0 W/m2 CLR
18:45 -16.8 °C -20.4 °C 35038.3 hPa Calm     62 % 0 mm 0.0 W/m2 CLR
18:47 -16.8 °C -20.4 °C 35024.8 hPa WNW 2.6 km/h 2.6 km/h 62 % 0 mm 0.0 W/m2 CLR
18:50 -16.8 °C -20.3 °C 35038.3 hPa West 6 km/h 6 km/h 63 % 0 mm 0.0 W/m2 CLR
18:55 -16.8 °C -20.3 °C 35038.3 hPa West 3.1 km/h   63 % 0 mm 0.0 W/m2 CLR
18:56 -16.8 °C -20.3 °C 35038.3 hPa Calm     63 % 0 mm 0.0 W/m2 CLR
19:01 -16.6 °C -20.1 °C 35038.3 hPa WSW 11.9 km/h 11.9 km/h 63 % 0 mm 0.0 W/m2 CLR
19:02 -16.6 °C -20.1 °C 35038.3 hPa West 6 km/h 6 km/h 63 % 0 mm 0.0 W/m2 CLR
19:06 -16.8 °C -20.3 °C 35038.3 hPa West 11.9 km/h 11.9 km/h 63 % 0 mm 0.0 W/m2 CLR
19:07 -16.8 °C -20.2 °C 35038.3 hPa West 9 km/h 9 km/h 64 % 0 mm 0.0 W/m2 CLR
19:12 -16.8 °C -20.1 °C 35038.3 hPa West 10.3 km/h 10.3 km/h 65 % 0 mm 0.0 W/m2 CLR
19:14 -17.2 °C -20.3 °C 35038.3 hPa West 18.2 km/h 18.2 km/h 66 % 0 mm 0.0 W/m2 CLR
19:19 -17.2 °C -20.2 °C 35038.3 hPa WNW 17.9 km/h 17.9 km/h 67 % 0 mm 0.0 W/m2 CLR
19:20 -17.2 °C -20.2 °C 35038.3 hPa WNW 17.9 km/h 17.9 km/h 67 % 0 mm 0.0 W/m2 CLR
19:25 -17.2 °C -20.4 °C 35038.3 hPa Calm     65 % 0 mm 0.0 W/m2 CLR
19:26 -17.2 °C -20.4 °C 35038.3 hPa West 15 km/h 15 km/h 65 % 0 mm 0.0 W/m2 CLR
19:31 -17.2 °C -20.5 °C 35038.3 hPa Calm     64 % 0 mm 0.0 W/m2 CLR
19:36 -17.2 °C -20.5 °C 35048.5 hPa Calm     64 % 0 mm 0.0 W/m2 CLR
19:41 -17.4 °C -20.6 °C 35048.5 hPa Calm     66 % 0 mm 0.0 W/m2 CLR
19:46 -17.4 °C -20.5 °C 35048.5 hPa Calm     67 % 0 mm 0.0 W/m2 CLR
19:47 -17.4 °C -20.5 °C 35048.5 hPa Calm     67 % 0 mm 0.0 W/m2 CLR
19:49 -17.4 °C -20.5 °C 35058.6 hPa Calm     67 % 0 mm 0.0 W/m2 CLR
19:52 -17.4 °C -20.5 °C 35058.6 hPa Calm     67 % 0 mm 0.0 W/m2 CLR
19:57 -17.8 °C -20.7 °C 35048.5 hPa WNW 15 km/h 15 km/h 68 % 0 mm 0.0 W/m2 CLR
19:58 -17.8 °C -20.7 °C 35048.5 hPa WNW 15.6 km/h 15.6 km/h 68 % 0 mm 0.0 W/m2 CLR
20:03 -17.8 °C -20.8 °C 35048.5 hPa WNW 20.9 km/h 20.9 km/h 67 % 0 mm 0.0 W/m2 CLR
20:08 -17.8 °C -21 °C 35048.5 hPa Calm     65 % 0 mm 0.0 W/m2 CLR
20:09 -17.8 °C -21 °C 35048.5 hPa Calm     65 % 0 mm 0.0 W/m2 CLR
20:14 -17.8 °C -21.1 °C 35058.6 hPa Calm     64 % 0 mm 0.0 W/m2 CLR
20:15 -17.8 °C -21.2 °C 35058.6 hPa Calm     63 % 0 mm 0.0 W/m2 CLR
20:17 -18.1 °C -21.5 °C 35058.6 hPa Calm     63 % 0 mm 0.0 W/m2 CLR
20:22 -18.1 °C -21.3 °C 35058.6 hPa Calm     65 % 0 mm 0.0 W/m2 CLR
20:27 -18.1 °C -21.2 °C 35058.6 hPa Calm     66 % 0 mm 0.0 W/m2 CLR
20:28 -18.1 °C -21.2 °C 35058.6 hPa Calm     66 % 0 mm 0.0 W/m2 CLR
20:32 -18.1 °C -21.1 °C 35058.6 hPa Calm     67 % 0 mm 0.0 W/m2 CLR
20:33 -18.1 °C -21.1 °C 35058.6 hPa Calm     67 % 0 mm 0.0 W/m2 CLR
20:38 -18.4 °C -21.1 °C 35058.6 hPa Calm     70 % 0 mm 0.0 W/m2 CLR
20:43 -18.1 °C -20.7 °C 35058.6 hPa West 9 km/h 9 km/h 71 % 0 mm 0.0 W/m2 CLR
20:44 -18.1 °C -20.7 °C 35058.6 hPa West 9 km/h 9 km/h 71 % 0 mm 0.0 W/m2 CLR
20:48 -18.1 °C -20.7 °C 35058.6 hPa West 9 km/h 9 km/h 70 % 0 mm 0.0 W/m2 CLR
20:49 -18.1 °C -20.7 °C 35058.6 hPa WNW 9 km/h 9 km/h 70 % 0 mm 0.0 W/m2 CLR
20:54 -18.1 °C -20.7 °C 35058.6 hPa Calm     70 % 0 mm 0.0 W/m2 CLR
20:55 -18.1 °C -20.9 °C 35058.6 hPa Calm     69 % 0 mm 0.0 W/m2 CLR
20:57 -18.4 °C -21.2 °C 35058.6 hPa Calm     69 % 0 mm 0.0 W/m2 CLR
21:02 -18.4 °C -21.2 °C 35058.6 hPa WNW 15 km/h 15 km/h 69 % 0 mm 0.0 W/m2 CLR
21:03 -18.4 °C -21.2 °C 35058.6 hPa WNW 11.9 km/h 11.9 km/h 69 % 0 mm 0.0 W/m2 CLR
21:07 -18.4 °C -21.3 °C 35058.6 hPa Calm     67 % 0 mm 0.0 W/m2 CLR
21:12 -18.4 °C -21.3 °C 35058.6 hPa Calm     67 % 0 mm 0.0 W/m2 CLR
21:13 -18.4 °C -21.3 °C 35058.6 hPa Calm     67 % 0 mm 0.0 W/m2 CLR
21:14 -18.4 °C -21.3 °C 35058.6 hPa Calm     67 % 0 mm 0.0 W/m2 CLR
21:18 -18.4 °C -21.3 °C 35058.6 hPa Calm     68 % 0 mm 0.0 W/m2 CLR
21:21 -18.4 °C -21.2 °C 35058.6 hPa Calm     69 % 0 mm 0.0 W/m2 CLR
21:24 -18.4 °C -21.1 °C 35058.6 hPa Calm     70 % 0 mm 0.0 W/m2 CLR
21:29 -18.7 °C -21.2 °C 35072.2 hPa Calm     71 % 0 mm 0.0 W/m2 CLR
21:30 -18.7 °C -21.2 °C 35072.2 hPa Calm     72 % 0 mm 0.0 W/m2 CLR
21:35 -18.7 °C -21.2 °C 35072.2 hPa Calm     72 % 0 mm 0.0 W/m2 CLR
21:36 -18.7 °C -21.2 °C 35072.2 hPa Calm     72 % 0 mm 0.0 W/m2 CLR
21:39 -18.7 °C -21.1 °C 35072.2 hPa Calm     73 % 0 mm 0.0 W/m2 CLR
21:41 -18.7 °C -21.1 °C 35072.2 hPa Calm     73 % 0 mm 0.0 W/m2 CLR
21:46 -19 °C -21.4 °C 35072.2 hPa Calm     72 % 0 mm 0.0 W/m2 CLR
21:47 -19 °C -21.4 °C 35072.2 hPa Calm     72 % 0 mm 0.0 W/m2 CLR
21:52 -19 °C -21.3 °C 35072.2 hPa Calm     73 % 0 mm 0.0 W/m2 CLR
21:56 -19 °C -21.2 °C 35072.2 hPa Calm     74 % 0 mm 0.0 W/m2 CLR
21:58 -19 °C -21.2 °C 35072.2 hPa Calm     74 % 0 mm 0.0 W/m2 CLR
22:02 -19 °C -21.2 °C 35072.2 hPa Calm     74 % 0 mm 0.0 W/m2 CLR
22:04 -19 °C -21.2 °C 35072.2 hPa Calm     75 % 0 mm 0.0 W/m2 CLR
22:09 -19 °C -21.2 °C 35072.2 hPa Calm     75 % 0 mm 0.0 W/m2 CLR
22:14 -19 °C -21.2 °C 35072.2 hPa Calm     75 % 0 mm 0.0 W/m2 CLR
22:16 -19 °C -21.1 °C 35082.3 hPa Calm     76 % 0 mm 0.0 W/m2 CLR
22:17 -19 °C -21.2 °C 35082.3 hPa Calm     75 % 0 mm 0.0 W/m2 CLR
22:21 -19 °C -21.2 °C 35082.3 hPa Calm     75 % 0 mm 0.0 W/m2 CLR
22:23 -19 °C -21.2 °C 35082.3 hPa Calm     75 % 0 mm 0.0 W/m2 CLR
22:27 -19 °C -21.2 °C 35072.2 hPa Calm     75 % 0 mm 0.0 W/m2 CLR
22:30 -19 °C -21.1 °C 35072.2 hPa Calm     76 % 0 mm 0.0 W/m2 CLR
22:35 -19 °C -21.2 °C 35082.3 hPa Calm     75 % 0 mm 0.0 W/m2 CLR
22:37 -19 °C -21.1 °C 35082.3 hPa Calm     76 % 0 mm 0.0 W/m2 CLR
22:41 -19 °C -21.1 °C 35082.3 hPa Calm     76 % 0 mm 0.0 W/m2 CLR
22:46 -19.3 °C -21.3 °C 35082.3 hPa Calm     77 % 0 mm 0.0 W/m2 CLR
22:51 -19.3 °C -21.3 °C 35082.3 hPa Calm     77 % 0 mm 0.0 W/m2 CLR
22:53 -19.3 °C -21.2 °C 35082.3 hPa Calm     78 % 0 mm 0.0 W/m2 CLR
22:58 -19.3 °C -21.2 °C 35082.3 hPa Calm     78 % 0 mm 0.0 W/m2 CLR
22:59 -19.3 °C -21.2 °C 35082.3 hPa Calm     78 % 0 mm 0.0 W/m2 CLR
23:01 -19.3 °C -21.2 °C 35082.3 hPa Calm     78 % 0 mm 0.0 W/m2 CLR
23:06 -19.3 °C -21.2 °C 35082.3 hPa Calm     78 % 0 mm 0.0 W/m2 CLR
23:08 -19.3 °C -21.2 °C 35082.3 hPa Calm     78 % 0 mm 0.0 W/m2 CLR
23:10 -19.6 °C -21.4 °C 35082.3 hPa Calm     78 % 0 mm 0.0 W/m2 CLR
23:13 -19.6 °C -21.3 °C 35082.3 hPa Calm     79 % 0 mm 0.0 W/m2 CLR
23:18 -19.6 °C -21.3 °C 35082.3 hPa Calm     80 % 0 mm 0.0 W/m2 CLR
23:20 -19.6 °C -21.3 °C 35082.3 hPa Calm     80 % 0 mm 0.0 W/m2 CLR
23:22 -19.6 °C -21.3 °C 35082.3 hPa Calm     80 % 0 mm 0.0 W/m2 CLR
23:26 -19.6 °C -21.3 °C 35082.3 hPa Calm     80 % 0 mm 0.0 W/m2 CLR
23:29 -19.6 °C -21.3 °C 35082.3 hPa Calm     80 % 0 mm 0.0 W/m2 CLR
23:32 -19.6 °C -21.3 °C 35082.3 hPa Calm     80 % 0 mm 0.0 W/m2 CLR
23:37 -19.3 °C -20.9 °C 35082.3 hPa Calm     80 % 0 mm 0.0 W/m2 CLR
23:38 -19.3 °C -20.9 °C 35082.3 hPa Calm     80 % 0 mm 0.0 W/m2 CLR
23:42 -19.3 °C -20.9 °C 35082.3 hPa Calm     80 % 0 mm 0.0 W/m2 CLR
23:47 -19.3 °C -20.9 °C 35082.3 hPa Calm     80 % 0 mm 0.0 W/m2 CLR
23:48 -19.3 °C -20.9 °C 35095.9 hPa Calm     81 % 0 mm 0.0 W/m2 CLR
23:53 -19.3 °C -20.9 °C 35095.9 hPa Calm     80 % 0 mm 0.0 W/m2 CLR
23:55 -19.3 °C -20.9 °C 35082.3 hPa Calm     80 % 0 mm 0.0 W/m2 CLR
Lo Temps de Massalio
Compliments of Weather Underground - 1.75 mb